AMX0655 MMPR-MMSP
Flight info
| Callsign | AMX0655 |
|---|---|
| Flight time | 0h 43m |
| Altitude | 33000 |
| Route | PVR4B PVR UJ14 GDL J25 SLP |
| Aircraft | B738/M-SDE2E3FGHIRWXY/LB1 |
Departure
| Time | 2026-05-09 02:04 |
|---|---|
| Airport | Puerto Vallarta International Airport (MMPR) |
Arrival
| Time | 2026-05-09 02:47 |
|---|---|
| Airport | Ponciano Arriaga International Airport (MMSP) |
| Time | Latitude | Longitude | Altitude | Speed | Heading |
|---|---|---|---|---|---|
| 2026-05-09 01:27 | 20.67857 | -105.24782 | 28 ft | 0 kts | 226° |
| 2026-05-09 01:53 | 20.67861 | -105.24777 | 28 ft | 4 kts | 224° |
| 2026-05-09 01:53 | 20.67883 | -105.24761 | 28 ft | 4 kts | 203° |
| 2026-05-09 01:53 | 20.67906 | -105.24749 | 28 ft | 3 kts | 225° |
| 2026-05-09 01:54 | 20.67912 | -105.24759 | 28 ft | 4 kts | 348° |
| 2026-05-09 01:54 | 20.67934 | -105.24773 | 28 ft | 4 kts | 324° |
| 2026-05-09 01:54 | 20.67953 | -105.24789 | 28 ft | 3 kts | 316° |
| 2026-05-09 01:54 | 20.67965 | -105.24803 | 28 ft | 4 kts | 313° |
| 2026-05-09 01:55 | 20.67975 | -105.24813 | 28 ft | 0 kts | 316° |
| 2026-05-09 01:59 | 20.67976 | -105.24814 | 28 ft | 1 kts | 317° |
| 2026-05-09 01:59 | 20.67997 | -105.24829 | 28 ft | 6 kts | 340° |
| 2026-05-09 02:00 | 20.68048 | -105.24812 | 28 ft | 10 kts | 41° |
| 2026-05-09 02:00 | 20.68106 | -105.24750 | 28 ft | 13 kts | 41° |
| 2026-05-09 02:00 | 20.68203 | -105.24710 | 28 ft | 17 kts | 17° |
| 2026-05-09 02:00 | 20.68324 | -105.24669 | 28 ft | 19 kts | 17° |
| 2026-05-09 02:01 | 20.68450 | -105.24628 | 28 ft | 18 kts | 20° |
| 2026-05-09 02:01 | 20.68541 | -105.24546 | 28 ft | 17 kts | 46° |
| 2026-05-09 02:01 | 20.68616 | -105.24459 | 28 ft | 15 kts | 47° |
| 2026-05-09 02:01 | 20.68686 | -105.24378 | 28 ft | 14 kts | 46° |
| 2026-05-09 02:02 | 20.68753 | -105.24303 | 28 ft | 14 kts | 46° |
| 2026-05-09 02:02 | 20.68826 | -105.24257 | 28 ft | 11 kts | 355° |
| 2026-05-09 02:02 | 20.68881 | -105.24296 | 28 ft | 8 kts | 317° |
| 2026-05-09 02:02 | 20.68920 | -105.24336 | 28 ft | 7 kts | 309° |
| 2026-05-09 02:03 | 20.68915 | -105.24376 | 28 ft | 5 kts | 231° |
| 2026-05-09 02:03 | 20.68826 | -105.24480 | 29 ft | 56 kts | 227° |
| 2026-05-09 02:03 | 20.68356 | -105.25020 | 27 ft | 141 kts | 226° |
| 2026-05-09 02:03 | 20.67513 | -105.25984 | 147 ft | 202 kts | 227° |
| 2026-05-09 02:04 | 20.66501 | -105.27181 | 524 ft | 235 kts | 226° |
| 2026-05-09 02:04 | 20.65397 | -105.28432 | 1757 ft | 222 kts | 226° |
| 2026-05-09 02:04 | 20.64296 | -105.29606 | 2697 ft | 229 kts | 225° |
| 2026-05-09 02:04 | 20.63119 | -105.30868 | 3061 ft | 254 kts | 226° |
| 2026-05-09 02:05 | 20.61821 | -105.32282 | 3490 ft | 275 kts | 227° |
| 2026-05-09 02:05 | 20.60469 | -105.33767 | 4285 ft | 282 kts | 227° |
| 2026-05-09 02:05 | 20.59112 | -105.35264 | 5069 ft | 286 kts | 227° |
| 2026-05-09 02:05 | 20.57945 | -105.36961 | 5890 ft | 284 kts | 251° |
| 2026-05-09 02:06 | 20.57640 | -105.39003 | 6704 ft | 279 kts | 278° |
| 2026-05-09 02:06 | 20.58204 | -105.40945 | 7503 ft | 275 kts | 302° |
| 2026-05-09 02:06 | 20.59498 | -105.42480 | 8251 ft | 279 kts | 325° |
| 2026-05-09 02:07 | 20.63270 | -105.43180 | 9612 ft | 296 kts | 14° |
| 2026-05-09 02:07 | 20.65118 | -105.42168 | 10229 ft | 306 kts | 39° |
| 2026-05-09 02:07 | 20.66503 | -105.40358 | 10478 ft | 330 kts | 63° |
| 2026-05-09 02:07 | 20.67422 | -105.38018 | 10673 ft | 352 kts | 69° |
| 2026-05-09 02:08 | 20.68284 | -105.35495 | 10822 ft | 373 kts | 70° |
| 2026-05-09 02:08 | 20.69162 | -105.32814 | 10962 ft | 391 kts | 71° |
| 2026-05-09 02:08 | 20.70073 | -105.30014 | 11117 ft | 406 kts | 71° |
| 2026-05-09 02:08 | 20.71012 | -105.27146 | 11475 ft | 413 kts | 71° |
| 2026-05-09 02:09 | 20.71987 | -105.24203 | 12008 ft | 415 kts | 71° |
| 2026-05-09 02:09 | 20.72960 | -105.21290 | 12558 ft | 417 kts | 71° |
| 2026-05-09 02:09 | 20.73946 | -105.18354 | 13031 ft | 420 kts | 71° |
| 2026-05-09 02:09 | 20.74940 | -105.15406 | 13507 ft | 423 kts | 71° |
| 2026-05-09 02:10 | 20.75941 | -105.12440 | 13939 ft | 426 kts | 71° |
| 2026-05-09 02:10 | 20.76952 | -105.09446 | 14359 ft | 429 kts | 71° |
| 2026-05-09 02:10 | 20.77968 | -105.06439 | 14774 ft | 432 kts | 71° |
| 2026-05-09 02:10 | 20.78990 | -105.03410 | 15167 ft | 435 kts | 71° |
| 2026-05-09 02:11 | 20.80019 | -105.00358 | 15551 ft | 438 kts | 71° |
| 2026-05-09 02:11 | 20.81055 | -104.97285 | 15930 ft | 440 kts | 71° |
| 2026-05-09 02:11 | 20.82094 | -104.94200 | 16332 ft | 442 kts | 71° |
| 2026-05-09 02:11 | 20.83139 | -104.91094 | 16705 ft | 445 kts | 71° |
| 2026-05-09 02:12 | 20.84175 | -104.88009 | 17063 ft | 448 kts | 71° |
| 2026-05-09 02:12 | 20.85233 | -104.84862 | 17414 ft | 450 kts | 71° |
| 2026-05-09 02:12 | 20.86291 | -104.81709 | 17775 ft | 452 kts | 71° |
| 2026-05-09 02:12 | 20.87358 | -104.78530 | 18127 ft | 455 kts | 71° |
| 2026-05-09 02:13 | 20.88442 | -104.75295 | 18425 ft | 457 kts | 71° |
| 2026-05-09 02:13 | 20.89517 | -104.72087 | 18708 ft | 460 kts | 71° |
| 2026-05-09 02:13 | 20.90583 | -104.68902 | 18954 ft | 463 kts | 71° |
| 2026-05-09 02:13 | 20.91671 | -104.65651 | 19205 ft | 465 kts | 71° |
| 2026-05-09 02:14 | 20.92765 | -104.62380 | 19472 ft | 468 kts | 71° |
| 2026-05-09 02:14 | 20.93860 | -104.59101 | 19754 ft | 470 kts | 71° |
| 2026-05-09 02:14 | 20.94963 | -104.55796 | 20016 ft | 472 kts | 71° |
| 2026-05-09 02:14 | 20.96070 | -104.52478 | 20237 ft | 475 kts | 71° |
| 2026-05-09 02:15 | 20.97183 | -104.49139 | 20492 ft | 477 kts | 71° |
| 2026-05-09 02:15 | 20.98298 | -104.45790 | 20745 ft | 479 kts | 71° |
| 2026-05-09 02:15 | 20.99418 | -104.42428 | 20983 ft | 481 kts | 71° |
| 2026-05-09 02:15 | 21.00543 | -104.39044 | 21206 ft | 483 kts | 71° |
| 2026-05-09 02:16 | 21.01674 | -104.35644 | 21423 ft | 486 kts | 71° |
| 2026-05-09 02:16 | 21.02810 | -104.32224 | 21641 ft | 488 kts | 71° |
| 2026-05-09 02:16 | 21.03947 | -104.28796 | 21852 ft | 490 kts | 71° |
| 2026-05-09 02:16 | 21.05087 | -104.25358 | 22056 ft | 492 kts | 71° |
| 2026-05-09 02:17 | 21.06234 | -104.21896 | 22273 ft | 494 kts | 71° |
| 2026-05-09 02:17 | 21.07386 | -104.18419 | 22478 ft | 496 kts | 71° |
| 2026-05-09 02:17 | 21.08538 | -104.14937 | 22666 ft | 498 kts | 71° |
| 2026-05-09 02:17 | 21.09697 | -104.11430 | 22844 ft | 500 kts | 71° |
| 2026-05-09 02:18 | 21.10859 | -104.07913 | 23043 ft | 501 kts | 71° |
| 2026-05-09 02:18 | 21.12021 | -104.04390 | 23215 ft | 503 kts | 71° |
| 2026-05-09 02:18 | 21.13191 | -104.00845 | 23385 ft | 505 kts | 71° |
| 2026-05-09 02:18 | 21.14358 | -103.97306 | 23632 ft | 504 kts | 71° |
| 2026-05-09 02:19 | 21.15526 | -103.93759 | 23752 ft | 507 kts | 71° |
| 2026-05-09 02:19 | 21.16703 | -103.90183 | 23848 ft | 510 kts | 71° |
| 2026-05-09 02:19 | 21.17882 | -103.86595 | 23984 ft | 511 kts | 71° |
| 2026-05-09 02:19 | 21.19066 | -103.82993 | 24152 ft | 512 kts | 71° |
| 2026-05-09 02:20 | 21.20245 | -103.79398 | 24306 ft | 513 kts | 71° |
| 2026-05-09 02:20 | 21.21429 | -103.75788 | 24429 ft | 514 kts | 71° |
| 2026-05-09 02:20 | 21.22614 | -103.72169 | 24538 ft | 516 kts | 71° |
| 2026-05-09 02:20 | 21.23803 | -103.68538 | 24680 ft | 517 kts | 71° |
| 2026-05-09 02:21 | 21.24592 | -103.66128 | 24762 ft | 518 kts | 71° |
| 2026-05-09 02:21 | 21.25784 | -103.62484 | 24883 ft | 519 kts | 71° |
| 2026-05-09 02:21 | 21.26981 | -103.58823 | 25001 ft | 520 kts | 71° |
| 2026-05-09 02:21 | 21.28177 | -103.55157 | 25124 ft | 521 kts | 71° |
| 2026-05-09 02:22 | 21.29374 | -103.51489 | 25253 ft | 522 kts | 71° |
| 2026-05-09 02:22 | 21.30573 | -103.47810 | 25356 ft | 523 kts | 71° |
| 2026-05-09 02:22 | 21.31774 | -103.44121 | 25480 ft | 524 kts | 71° |
| 2026-05-09 02:22 | 21.32976 | -103.40428 | 25543 ft | 525 kts | 71° |
| 2026-05-09 02:23 | 21.34178 | -103.36729 | 25608 ft | 526 kts | 71° |
| 2026-05-09 02:23 | 21.35387 | -103.33009 | 25679 ft | 527 kts | 72° |
| 2026-05-09 02:23 | 21.36591 | -103.29297 | 25751 ft | 527 kts | 71° |
| 2026-05-09 02:23 | 21.37795 | -103.25584 | 25802 ft | 528 kts | 71° |
| 2026-05-09 02:24 | 21.39001 | -103.21863 | 25842 ft | 529 kts | 72° |
| 2026-05-09 02:24 | 21.40209 | -103.18127 | 25876 ft | 529 kts | 71° |
| 2026-05-09 02:24 | 21.41414 | -103.14404 | 25988 ft | 528 kts | 71° |
| 2026-05-09 02:24 | 21.42615 | -103.10690 | 26066 ft | 528 kts | 71° |
| 2026-05-09 02:25 | 21.43819 | -103.06964 | 26120 ft | 528 kts | 71° |
| 2026-05-09 02:25 | 21.45022 | -103.03234 | 26213 ft | 528 kts | 72° |
| 2026-05-09 02:25 | 21.46226 | -102.99502 | 26309 ft | 528 kts | 71° |
| 2026-05-09 02:25 | 21.47427 | -102.95772 | 26412 ft | 528 kts | 72° |
| 2026-05-09 02:26 | 21.48626 | -102.92046 | 26508 ft | 528 kts | 71° |
| 2026-05-09 02:26 | 21.49825 | -102.88319 | 26601 ft | 528 kts | 72° |
| 2026-05-09 02:26 | 21.51020 | -102.84599 | 26702 ft | 528 kts | 72° |
| 2026-05-09 02:26 | 21.52217 | -102.80869 | 26792 ft | 528 kts | 72° |
| 2026-05-09 02:27 | 21.53413 | -102.77141 | 26903 ft | 528 kts | 72° |
| 2026-05-09 02:27 | 21.54595 | -102.73452 | 26986 ft | 529 kts | 72° |
| 2026-05-09 02:27 | 21.55807 | -102.69666 | 27091 ft | 529 kts | 72° |
| 2026-05-09 02:27 | 21.57001 | -102.65936 | 27216 ft | 529 kts | 72° |
| 2026-05-09 02:28 | 21.58179 | -102.62249 | 27378 ft | 528 kts | 72° |
| 2026-05-09 02:28 | 21.59374 | -102.58505 | 27534 ft | 529 kts | 72° |
| 2026-05-09 02:28 | 21.60564 | -102.54778 | 27717 ft | 528 kts | 72° |
| 2026-05-09 02:28 | 21.61756 | -102.51038 | 27872 ft | 529 kts | 72° |
| 2026-05-09 02:29 | 21.62947 | -102.47298 | 28026 ft | 529 kts | 72° |
| 2026-05-09 02:29 | 21.64138 | -102.43557 | 28212 ft | 529 kts | 72° |
| 2026-05-09 02:29 | 21.65327 | -102.39817 | 28395 ft | 528 kts | 72° |
| 2026-05-09 02:29 | 21.66515 | -102.36078 | 28520 ft | 529 kts | 72° |
| 2026-05-09 02:30 | 21.67700 | -102.32345 | 28662 ft | 529 kts | 72° |
| 2026-05-09 02:30 | 21.68887 | -102.28601 | 28813 ft | 529 kts | 72° |
| 2026-05-09 02:30 | 21.70075 | -102.24853 | 28955 ft | 529 kts | 72° |
| 2026-05-09 02:30 | 21.71259 | -102.21114 | 29090 ft | 529 kts | 72° |
| 2026-05-09 02:31 | 21.72442 | -102.17374 | 29166 ft | 529 kts | 72° |
| 2026-05-09 02:31 | 21.74809 | -102.09878 | 29372 ft | 529 kts | 72° |
| 2026-05-09 02:31 | 21.75990 | -102.06136 | 29483 ft | 529 kts | 72° |
| 2026-05-09 02:32 | 21.77173 | -102.02382 | 29397 ft | 531 kts | 72° |
| 2026-05-09 02:32 | 21.79538 | -101.94870 | 29296 ft | 528 kts | 72° |
| 2026-05-09 02:33 | 21.81890 | -101.87384 | 29294 ft | 528 kts | 72° |
| 2026-05-09 02:33 | 21.84200 | -101.80026 | 28767 ft | 508 kts | 72° |
| 2026-05-09 02:33 | 21.85322 | -101.76444 | 28200 ft | 501 kts | 72° |
| 2026-05-09 02:34 | 21.86438 | -101.72879 | 27212 ft | 504 kts | 72° |
| 2026-05-09 02:34 | 21.87547 | -101.69327 | 26123 ft | 510 kts | 72° |
| 2026-05-09 02:34 | 21.88682 | -101.65692 | 25053 ft | 515 kts | 72° |
| 2026-05-09 02:34 | 21.89822 | -101.62041 | 24235 ft | 513 kts | 72° |
| 2026-05-09 02:35 | 21.90950 | -101.58426 | 23638 ft | 505 kts | 72° |
| 2026-05-09 02:35 | 21.92059 | -101.54870 | 23013 ft | 498 kts | 72° |
| 2026-05-09 02:35 | 21.93152 | -101.51362 | 22324 ft | 491 kts | 72° |
| 2026-05-09 02:35 | 21.94230 | -101.47897 | 21648 ft | 484 kts | 72° |
| 2026-05-09 02:36 | 21.95289 | -101.44491 | 20994 ft | 477 kts | 72° |
| 2026-05-09 02:36 | 21.96335 | -101.41123 | 20340 ft | 471 kts | 72° |
| 2026-05-09 02:36 | 21.97367 | -101.37796 | 19700 ft | 465 kts | 72° |
| 2026-05-09 02:36 | 21.98387 | -101.34504 | 19065 ft | 459 kts | 72° |
| 2026-05-09 02:37 | 21.99394 | -101.31255 | 18453 ft | 454 kts | 72° |
| 2026-05-09 02:37 | 22.00544 | -101.28115 | 17795 ft | 448 kts | 61° |
| 2026-05-09 02:37 | 22.02353 | -101.25405 | 17073 ft | 443 kts | 50° |
| 2026-05-09 02:37 | 22.04285 | -101.22843 | 16357 ft | 440 kts | 50° |
| 2026-05-09 02:38 | 22.06192 | -101.20266 | 15665 ft | 437 kts | 51° |
| 2026-05-09 02:38 | 22.08054 | -101.17695 | 15023 ft | 434 kts | 51° |
| 2026-05-09 02:38 | 22.09889 | -101.15128 | 14405 ft | 430 kts | 51° |
| 2026-05-09 02:38 | 22.11698 | -101.12579 | 13805 ft | 427 kts | 52° |
| 2026-05-09 02:39 | 22.12926 | -101.09772 | 13681 ft | 398 kts | 77° |
| 2026-05-09 02:39 | 22.12910 | -101.06983 | 13889 ft | 354 kts | 106° |
| 2026-05-09 02:39 | 22.11844 | -101.04781 | 14015 ft | 315 kts | 135° |
| 2026-05-09 02:39 | 22.10123 | -101.03572 | 13849 ft | 284 kts | 169° |
| 2026-05-09 02:40 | 22.08289 | -101.03071 | 13706 ft | 265 kts | 159° |
| 2026-05-09 02:40 | 22.06944 | -101.01811 | 13574 ft | 254 kts | 122° |
| 2026-05-09 02:40 | 22.06279 | -101.00096 | 13227 ft | 248 kts | 103° |
| 2026-05-09 02:40 | 22.06040 | -100.98271 | 12968 ft | 238 kts | 97° |
| 2026-05-09 02:41 | 22.05836 | -100.96530 | 12688 ft | 233 kts | 98° |
| 2026-05-09 02:41 | 22.05656 | -100.94804 | 12375 ft | 230 kts | 96° |
| 2026-05-09 02:41 | 22.05564 | -100.93090 | 12054 ft | 228 kts | 91° |
| 2026-05-09 02:41 | 22.05634 | -100.91376 | 11684 ft | 229 kts | 84° |
| 2026-05-09 02:42 | 22.05844 | -100.89696 | 11417 ft | 222 kts | 81° |
| 2026-05-09 02:42 | 22.06136 | -100.88068 | 10996 ft | 222 kts | 78° |
| 2026-05-09 02:42 | 22.06526 | -100.86461 | 10618 ft | 219 kts | 74° |
| 2026-05-09 02:42 | 22.07073 | -100.84936 | 10196 ft | 218 kts | 57° |
| 2026-05-09 02:43 | 22.08127 | -100.83806 | 9708 ft | 215 kts | 29° |
| 2026-05-09 02:43 | 22.09541 | -100.83344 | 9154 ft | 213 kts | 359° |
| 2026-05-09 02:43 | 22.10961 | -100.83627 | 8956 ft | 204 kts | 336° |
| 2026-05-09 02:43 | 22.12224 | -100.84330 | 8620 ft | 202 kts | 327° |
| 2026-05-09 02:44 | 22.13405 | -100.85104 | 8376 ft | 194 kts | 327° |
| 2026-05-09 02:44 | 22.14527 | -100.85841 | 8230 ft | 184 kts | 327° |
| 2026-05-09 02:44 | 22.15604 | -100.86546 | 8040 ft | 183 kts | 327° |
| 2026-05-09 02:44 | 22.16668 | -100.87236 | 7875 ft | 180 kts | 327° |
| 2026-05-09 02:45 | 22.17742 | -100.87949 | 7845 ft | 176 kts | 326° |
| 2026-05-09 02:45 | 22.18822 | -100.88673 | 7804 ft | 185 kts | 327° |
| 2026-05-09 02:45 | 22.19883 | -100.89410 | 7656 ft | 183 kts | 324° |
| 2026-05-09 02:45 | 22.20926 | -100.90175 | 7329 ft | 183 kts | 327° |
| 2026-05-09 02:46 | 22.22007 | -100.90895 | 7011 ft | 181 kts | 331° |
| 2026-05-09 02:46 | 22.23076 | -100.91562 | 6669 ft | 173 kts | 331° |
| 2026-05-09 02:46 | 22.24066 | -100.92201 | 6271 ft | 158 kts | 331° |
| 2026-05-09 02:46 | 22.24971 | -100.92791 | 6073 ft | 147 kts | 332° |
| 2026-05-09 02:47 | 22.25805 | -100.93317 | 6033 ft | 123 kts | 329° |
| 2026-05-09 02:47 | 22.26440 | -100.93723 | 6036 ft | 89 kts | 329° |
| 2026-05-09 02:47 | 22.26877 | -100.93998 | 6036 ft | 55 kts | 328° |
| 2026-05-09 02:47 | 22.27085 | -100.94130 | 6037 ft | 22 kts | 326° |
| 2026-05-09 02:48 | 22.27178 | -100.94195 | 6038 ft | 16 kts | 328° |
| 2026-05-09 02:48 | 22.27270 | -100.94274 | 6038 ft | 17 kts | 304° |
| 2026-05-09 02:48 | 22.27315 | -100.94330 | 6037 ft | 3 kts | 12° |
| 2026-05-09 02:48 | 22.27329 | -100.94306 | 6038 ft | 5 kts | 78° |
| 2026-05-09 02:49 | 22.27309 | -100.94276 | 6038 ft | 7 kts | 152° |
| 2026-05-09 02:49 | 22.27236 | -100.94232 | 6038 ft | 17 kts | 150° |
| 2026-05-09 02:49 | 22.27107 | -100.94149 | 6038 ft | 26 kts | 149° |
| 2026-05-09 02:49 | 22.26940 | -100.94042 | 6036 ft | 29 kts | 150° |
| 2026-05-09 02:50 | 22.26760 | -100.93930 | 6035 ft | 31 kts | 149° |
| 2026-05-09 02:50 | 22.26571 | -100.93806 | 6035 ft | 32 kts | 149° |
| 2026-05-09 02:50 | 22.26371 | -100.93679 | 6036 ft | 34 kts | 149° |
| 2026-05-09 02:50 | 22.26232 | -100.93593 | 6037 ft | 19 kts | 149° |
| 2026-05-09 02:51 | 22.26107 | -100.93520 | 6036 ft | 22 kts | 163° |
| 2026-05-09 02:51 | 22.25953 | -100.93515 | 6036 ft | 11 kts | 178° |
| 2026-05-09 02:51 | 22.25868 | -100.93509 | 6036 ft | 14 kts | 178° |
| 2026-05-09 02:51 | 22.25765 | -100.93509 | 6036 ft | 14 kts | 187° |
| 2026-05-09 02:52 | 22.25700 | -100.93555 | 6036 ft | 9 kts | 212° |
| 2026-05-09 02:52 | 22.25669 | -100.93569 | 6036 ft | 4 kts | 226° |
| 2026-05-09 02:52 | 22.25653 | -100.93595 | 6036 ft | 3 kts | 238° |
| 2026-05-09 02:52 | 22.25646 | -100.93608 | 6036 ft | 1 kts | 239° |
| 2026-05-09 02:53 | 22.25643 | -100.93613 | 6036 ft | 0 kts | 239° |